Time;durP1;ratioP1;P1;durP2;ratioP2;P2;SDS_P1;SDS_P2;PMS_P1;PMS_P2;Temp;Humidity;BMP_temperature;BMP_pressure;BME280_temperature;BME280_humidity;BME280_pressure;Samples;Min_cycle;Max_cycle;Signal;HPM_P1;HPM_P2
2022/09/27 00:00:41;;;;;;;;;;;16.30;99.90;;;;;;4936948;29;19977;-71
2022/09/27 00:03:09;;;;;;;;;;;16.40;99.90;;;;;;4937140;29;20366;-70
2022/09/27 00:05:36;;;;;;;;;;;16.50;99.90;;;;;;4936936;29;19958;-71
2022/09/27 00:08:05;;;;;;;;;;;16.40;99.90;;;;;;4937304;29;19937;-72
2022/09/27 00:10:32;;;;;;;;;;;16.60;99.90;;;;;;4937398;29;20010;-71
2022/09/27 00:12:59;;;;;;;;;;;16.60;99.90;;;;;;4937284;29;19978;-72
2022/09/27 00:15:26;;;;;;;;;;;16.70;99.90;;;;;;4935581;29;19923;-71
2022/09/27 00:17:52;;;;;;;;;;;16.70;99.90;;;;;;4937090;29;19910;-72
2022/09/27 00:20:20;;;;;;;;;;;16.70;99.90;;;;;;4937939;29;19965;-70
2022/09/27 00:22:49;;;;;;;;;;;16.90;99.90;;;;;;4952438;29;19926;-68
2022/09/27 00:25:17;;;;;;;;;;;17.00;99.90;;;;;;4939170;29;19940;-70
2022/09/27 00:27:44;;;;;;;;;;;17.10;99.90;;;;;;4937177;29;19917;-69
2022/09/27 00:30:11;;;;;;;;;;;17.20;99.90;;;;;;4935305;29;19919;-68
2022/09/27 00:32:37;;;;;;;;;;;17.40;99.90;;;;;;4936800;29;19918;-71
2022/09/27 00:35:04;;;;;;;;;;;17.50;99.90;;;;;;4936159;29;19915;-71
2022/09/27 00:37:31;;;;;;;;;;;17.70;99.90;;;;;;4936728;29;20334;-68
2022/09/27 00:39:57;;;;;;;;;;;17.80;99.90;;;;;;4937020;29;19918;-69
2022/09/27 00:42:24;;;;;;;;;;;17.80;99.90;;;;;;4936624;29;19919;-69
2022/09/27 00:44:59;;;;;;;;;;;17.90;99.90;;;;;;4918563;29;20013;-68
2022/09/27 00:47:26;;;;;;;;;;;18.00;99.90;;;;;;4917524;29;19915;-70
2022/09/27 00:49:56;;;;;;;;;;;18.00;99.90;;;;;;4917519;29;19934;-75
2022/09/27 00:52:28;;;;;;;;;;;18.20;99.90;;;;;;4917397;29;19965;-69
2022/09/27 00:54:59;;;;;;;;;;;18.20;99.90;;;;;;4917398;29;19915;-70
2022/09/27 00:57:25;;;;;;;;;;;18.20;99.90;;;;;;4916761;29;20005;-70
2022/09/27 00:59:57;;;;;;;;;;;18.30;99.90;;;;;;4935633;29;20290;-70
2022/09/27 01:02:23;;;;;;;;;;;18.30;99.90;;;;;;4936393;29;19918;-70
2022/09/27 01:04:50;;;;;;;;;;;18.20;99.90;;;;;;4935789;29;20298;-70
2022/09/27 01:07:18;;;;;;;;;;;18.30;99.90;;;;;;4935950;29;20354;-68
2022/09/27 01:09:44;;;;;;;;;;;18.40;99.90;;;;;;4934518;29;19922;-70
2022/09/27 01:12:20;;;;;;;;;;;18.50;99.90;;;;;;4935490;29;20424;-68
2022/09/27 01:15:04;;;;;;;;;;;18.50;99.90;;;;;;4915957;29;19915;-69
2022/09/27 01:17:46;;;;;;;;;;;18.60;99.90;;;;;;4917029;29;20304;-75
2022/09/27 01:20:19;;;;;;;;;;;18.60;99.90;;;;;;4916886;29;20286;-66
2022/09/27 01:23:03;;;;;;;;;;;18.90;99.90;;;;;;4916831;29;19919;-67
2022/09/27 01:25:30;;;;;;;;;;;19.10;99.90;;;;;;4916648;29;20699;-70
2022/09/27 01:27:59;;;;;;;;;;;19.40;99.90;;;;;;4916169;29;19957;-70
2022/09/27 01:30:28;;;;;;;;;;;19.90;99.90;;;;;;4915945;29;19915;-68
2022/09/27 01:33:09;;;;;;;;;;;19.90;99.90;;;;;;4916932;29;19915;-69
2022/09/27 01:35:39;;;;;;;;;;;19.70;99.90;;;;;;4916342;29;19950;-72
2022/09/27 01:38:23;;;;;;;;;;;19.60;99.90;;;;;;4919611;29;19950;-70
2022/09/27 01:40:56;;;;;;;;;;;19.60;99.90;;;;;;4935802;29;19930;-68
2022/09/27 01:43:29;;;;;;;;;;;19.70;99.90;;;;;;4935376;29;19919;-71
2022/09/27 01:45:55;;;;;;;;;;;19.50;99.90;;;;;;4935433;29;19911;-74
2022/09/27 01:48:23;;;;;;;;;;;19.40;99.90;;;;;;4934887;29;19925;-71
2022/09/27 01:51:05;;;;;;;;;;;19.40;99.90;;;;;;4933989;29;19950;-70
2022/09/27 01:53:37;;;;;;;;;;;19.50;99.90;;;;;;4935445;29;20009;-68
2022/09/27 01:56:05;;;;;;;;;;;19.60;99.90;;;;;;4935577;29;19918;-67
2022/09/27 01:58:52;;;;;;;;;;;19.70;99.90;;;;;;4938302;29;20028;-69
2022/09/27 02:01:21;;;;;;;;;;;19.70;99.90;;;;;;4939302;29;19930;-69
2022/09/27 02:03:49;;;;;;;;;;;19.90;99.90;;;;;;4947310;29;19974;-70
2022/09/27 02:06:21;;;;;;;;;;;19.90;99.90;;;;;;4936689;29;19993;-69
2022/09/27 02:09:11;;;;;;;;;;;20.00;99.90;;;;;;4935295;29;20010;-69
2022/09/27 02:11:39;;;;;;;;;;;20.10;99.90;;;;;;4927548;29;19917;-71
2022/09/27 02:14:14;;;;;;;;;;;20.20;99.90;;;;;;4935353;29;19911;-70
2022/09/27 02:17:12;;;;;;;;;;;20.30;99.90;;;;;;4934926;29;19910;-74
2022/09/27 02:19:39;;;;;;;;;;;20.30;99.90;;;;;;4923627;29;19918;-74
2022/09/27 02:22:21;;;;;;;;;;;20.10;99.90;;;;;;4934606;29;19986;-68
2022/09/27 02:24:52;;;;;;;;;;;20.00;99.90;;;;;;4934792;29;19997;-71
2022/09/27 02:27:33;;;;;;;;;;;20.20;99.90;;;;;;4934899;29;19914;-74
2022/09/27 02:30:03;;;;;;;;;;;20.30;99.90;;;;;;4935011;29;19911;-69
2022/09/27 02:32:29;;;;;;;;;;;20.20;99.90;;;;;;4935140;29;19917;-73
2022/09/27 02:34:58;;;;;;;;;;;20.30;99.90;;;;;;4934547;29;19915;-69
2022/09/27 02:37:24;;;;;;;;;;;20.30;99.90;;;;;;4934723;29;20006;-73
2022/09/27 02:39:51;;;;;;;;;;;20.20;99.90;;;;;;4935178;29;19999;-72
2022/09/27 02:42:18;;;;;;;;;;;20.10;99.90;;;;;;4935084;29;19919;-68
2022/09/27 02:44:45;;;;;;;;;;;20.10;99.90;;;;;;4934712;29;19914;-72
2022/09/27 02:47:11;;;;;;;;;;;20.10;99.90;;;;;;4934594;29;19918;-67
2022/09/27 02:49:38;;;;;;;;;;;20.10;99.90;;;;;;4934732;29;19962;-73
2022/09/27 02:52:17;;;;;;;;;;;19.90;99.90;;;;;;4935037;29;19919;-73
2022/09/27 02:54:49;;;;;;;;;;;19.80;99.90;;;;;;4934773;29;19911;-72
2022/09/27 02:57:25;;;;;;;;;;;19.90;99.90;;;;;;4933740;29;19919;-73
2022/09/27 03:00:02;;;;;;;;;;;19.90;99.90;;;;;;4933053;29;20271;-73
2022/09/27 03:02:47;;;;;;;;;;;20.00;99.90;;;;;;4934786;29;19919;-73
2022/09/27 03:05:36;;;;;;;;;;;20.10;99.90;;;;;;4933900;29;19917;-69
2022/09/27 03:08:03;;;;;;;;;;;20.10;99.90;;;;;;4905931;29;20282;-73
2022/09/27 03:10:30;;;;;;;;;;;20.10;99.90;;;;;;4934754;29;20335;-72
2022/09/27 03:13:00;;;;;;;;;;;20.20;99.90;;;;;;4934487;29;19946;-74
2022/09/27 03:15:26;;;;;;;;;;;20.20;99.90;;;;;;4934397;29;19918;-74
2022/09/27 03:17:53;;;;;;;;;;;20.20;99.90;;;;;;4934873;29;19922;-74
2022/09/27 03:20:20;;;;;;;;;;;20.00;99.90;;;;;;4934505;29;19911;-73
2022/09/27 03:22:47;;;;;;;;;;;20.00;99.90;;;;;;4934694;29;19970;-73
2022/09/27 03:25:13;;;;;;;;;;;20.00;99.90;;;;;;4934291;29;20046;-70
2022/09/27 03:27:40;;;;;;;;;;;20.10;99.90;;;;;;4934861;29;19957;-72
2022/09/27 03:30:07;;;;;;;;;;;20.10;99.90;;;;;;4934480;29;19916;-70
2022/09/27 03:32:34;;;;;;;;;;;20.30;99.90;;;;;;4934612;29;20009;-74
2022/09/27 03:35:00;;;;;;;;;;;20.30;99.90;;;;;;4939352;29;19915;-72
2022/09/27 03:37:28;;;;;;;;;;;20.30;99.90;;;;;;4946099;29;20290;-67
2022/09/27 03:39:55;;;;;;;;;;;20.30;99.90;;;;;;4939160;29;19998;-72
2022/09/27 03:42:21;;;;;;;;;;;20.40;99.90;;;;;;4937987;29;19951;-68
2022/09/27 03:44:50;;;;;;;;;;;20.40;99.90;;;;;;4937507;29;19911;-73
2022/09/27 03:47:16;;;;;;;;;;;20.50;99.90;;;;;;4936465;29;20286;-68
2022/09/27 03:49:43;;;;;;;;;;;20.50;99.90;;;;;;4937521;29;20382;-69
2022/09/27 03:52:09;;;;;;;;;;;20.40;99.90;;;;;;4937889;29;19911;-69
2022/09/27 03:54:37;;;;;;;;;;;20.40;99.90;;;;;;4937518;29;19911;-68
2022/09/27 03:57:04;;;;;;;;;;;20.20;99.90;;;;;;4936573;29;19915;-68
2022/09/27 03:59:30;;;;;;;;;;;20.00;99.90;;;;;;4937773;29;19911;-68
2022/09/27 04:01:59;;;;;;;;;;;19.90;99.90;;;;;;4936384;29;19969;-68
2022/09/27 04:04:27;;;;;;;;;;;19.90;99.90;;;;;;4936443;29;20025;-70
2022/09/27 04:06:53;;;;;;;;;;;19.90;99.90;;;;;;4937203;29;19922;-69
2022/09/27 04:09:20;;;;;;;;;;;19.70;99.90;;;;;;4937385;29;19958;-69
2022/09/27 04:11:47;;;;;;;;;;;19.50;99.90;;;;;;4937710;29;19911;-69
2022/09/27 04:14:14;;;;;;;;;;;19.50;99.90;;;;;;4936095;29;20009;-69
2022/09/27 04:16:41;;;;;;;;;;;19.40;99.90;;;;;;4937575;29;19918;-69
2022/09/27 04:19:08;;;;;;;;;;;19.40;99.90;;;;;;4936922;29;19915;-69
2022/09/27 04:21:35;;;;;;;;;;;19.40;99.90;;;;;;4937803;29;19919;-68
2022/09/27 04:24:01;;;;;;;;;;;19.40;99.90;;;;;;4937145;29;19919;-68
2022/09/27 04:26:28;;;;;;;;;;;19.40;99.90;;;;;;4937054;29;19915;-69
2022/09/27 04:28:55;;;;;;;;;;;19.40;99.90;;;;;;4937153;29;19910;-70
2022/09/27 04:31:22;;;;;;;;;;;19.20;99.90;;;;;;4936327;29;19926;-67
2022/09/27 04:33:48;;;;;;;;;;;19.00;99.90;;;;;;4938314;29;19911;-66
2022/09/27 04:36:26;;;;;;;;;;;18.70;99.90;;;;;;4938929;29;19911;-68
2022/09/27 04:38:57;;;;;;;;;;;18.50;99.90;;;;;;4954106;29;19910;-69
2022/09/27 04:41:24;;;;;;;;;;;18.40;99.90;;;;;;4950176;29;20285;-71
2022/09/27 04:43:51;;;;;;;;;;;18.20;99.90;;;;;;4940255;29;19966;-73
2022/09/27 04:46:19;;;;;;;;;;;18.20;99.90;;;;;;4937842;29;19911;-72
2022/09/27 04:48:46;;;;;;;;;;;18.20;99.90;;;;;;4939029;29;20430;-74
2022/09/27 04:51:16;;;;;;;;;;;18.20;99.90;;;;;;4940514;29;19914;-72
2022/09/27 04:53:45;;;;;;;;;;;18.20;99.90;;;;;;4939476;29;20005;-73
2022/09/27 04:56:13;;;;;;;;;;;18.30;99.90;;;;;;4937019;29;20013;-69
2022/09/27 04:58:40;;;;;;;;;;;18.50;99.90;;;;;;4938616;29;19918;-70
2022/09/27 05:01:08;;;;;;;;;;;18.70;99.90;;;;;;4938252;29;20393;-70
2022/09/27 05:03:34;;;;;;;;;;;18.70;99.90;;;;;;4937615;29;19937;-69
2022/09/27 05:06:01;;;;;;;;;;;18.80;99.90;;;;;;4936592;29;19915;-73
2022/09/27 05:08:28;;;;;;;;;;;19.00;99.90;;;;;;4937350;29;19911;-68
2022/09/27 05:10:55;;;;;;;;;;;19.10;99.90;;;;;;4936156;29;20362;-69
2022/09/27 05:13:22;;;;;;;;;;;19.10;99.90;;;;;;4939514;29;20439;-68
2022/09/27 05:15:48;;;;;;;;;;;19.20;99.90;;;;;;4938644;29;19915;-68
2022/09/27 05:18:16;;;;;;;;;;;19.30;99.90;;;;;;4936355;29;19917;-69
2022/09/27 05:20:44;;;;;;;;;;;19.30;99.90;;;;;;4936942;29;19962;-68
2022/09/27 05:23:12;;;;;;;;;;;19.40;99.90;;;;;;4937717;29;19962;-68
2022/09/27 05:25:39;;;;;;;;;;;19.40;99.90;;;;;;4937465;29;19920;-71
2022/09/27 05:28:06;;;;;;;;;;;19.40;99.90;;;;;;4936951;29;19970;-69
2022/09/27 05:30:33;;;;;;;;;;;19.40;99.90;;;;;;4936556;29;20362;-69
2022/09/27 05:32:59;;;;;;;;;;;19.30;99.90;;;;;;4936564;29;19915;-70
2022/09/27 05:35:26;;;;;;;;;;;19.20;99.90;;;;;;4936066;29;19911;-73
2022/09/27 05:37:58;;;;;;;;;;;19.20;99.90;;;;;;4936151;29;19915;-71
2022/09/27 05:40:24;;;;;;;;;;;19.20;99.90;;;;;;4935806;29;20370;-68
2022/09/27 05:42:52;;;;;;;;;;;19.20;99.90;;;;;;4936002;29;19978;-69
2022/09/27 05:45:20;;;;;;;;;;;19.10;99.90;;;;;;4935461;29;19915;-70
2022/09/27 05:47:56;;;;;;;;;;;19.00;99.90;;;;;;4936121;29;19922;-68
2022/09/27 05:50:24;;;;;;;;;;;19.00;99.90;;;;;;4935782;29;20418;-69
2022/09/27 05:52:51;;;;;;;;;;;18.90;99.90;;;;;;4935623;29;19915;-69
2022/09/27 05:55:17;;;;;;;;;;;18.80;99.90;;;;;;4933800;29;20005;-69
2022/09/27 05:58:15;;;;;;;;;;;18.70;99.90;;;;;;4934411;29;19914;-74
2022/09/27 06:00:44;;;;;;;;;;;18.70;99.90;;;;;;4923108;29;19977;-67
2022/09/27 06:03:11;;;;;;;;;;;18.70;99.90;;;;;;4934587;29;20307;-69
2022/09/27 06:05:39;;;;;;;;;;;18.60;99.90;;;;;;4935389;29;19946;-67
2022/09/27 06:08:09;;;;;;;;;;;18.50;99.90;;;;;;4922773;29;19915;-68
2022/09/27 06:10:36;;;;;;;;;;;18.50;99.90;;;;;;4917989;29;19911;-68
2022/09/27 06:13:07;;;;;;;;;;;18.50;99.90;;;;;;4935165;29;20405;-68
2022/09/27 06:15:36;;;;;;;;;;;18.50;99.90;;;;;;4934940;29;19922;-67
2022/09/27 06:18:08;;;;;;;;;;;18.40;99.90;;;;;;4935034;29;19917;-68
2022/09/27 06:20:35;;;;;;;;;;;18.30;99.90;;;;;;4933645;29;19915;-70
2022/09/27 06:23:12;;;;;;;;;;;18.20;99.90;;;;;;4934347;29;19911;-69
2022/09/27 06:25:39;;;;;;;;;;;18.20;99.90;;;;;;4935136;29;19911;-75
2022/09/27 06:28:06;;;;;;;;;;;18.20;99.90;;;;;;4934974;29;19911;-70
2022/09/27 06:30:33;;;;;;;;;;;18.10;99.90;;;;;;4934918;29;19911;-68
2022/09/27 06:33:00;;;;;;;;;;;18.10;99.90;;;;;;4934956;29;20370;-71
2022/09/27 06:35:27;;;;;;;;;;;18.10;99.90;;;;;;4935215;29;19982;-71
2022/09/27 06:37:54;;;;;;;;;;;18.00;99.90;;;;;;4935089;29;19917;-71
2022/09/27 06:40:25;;;;;;;;;;;18.00;99.90;;;;;;4934918;29;19917;-69
2022/09/27 06:42:52;;;;;;;;;;;17.90;99.90;;;;;;4935115;29;19962;-68
2022/09/27 06:45:19;;;;;;;;;;;17.90;99.90;;;;;;4934294;29;19910;-67
2022/09/27 06:47:46;;;;;;;;;;;17.80;99.90;;;;;;4935358;29;19922;-73
2022/09/27 06:50:13;;;;;;;;;;;17.80;99.90;;;;;;4937692;29;19914;-67
2022/09/27 06:52:46;;;;;;;;;;;17.70;99.90;;;;;;4937803;29;20032;-69
2022/09/27 06:55:16;;;;;;;;;;;17.70;99.90;;;;;;4932785;29;19962;-69
2022/09/27 07:00:30;;;;;;;;;;;17.70;99.90;;;;;;4892442;29;19928;-74
2022/09/27 07:03:00;;;;;;;;;;;17.60;99.90;;;;;;4926276;29;19923;-73
2022/09/27 07:05:28;;;;;;;;;;;17.60;99.90;;;;;;4931940;29;19927;-69
2022/09/27 07:07:56;;;;;;;;;;;17.50;99.90;;;;;;4933333;29;20025;-68
2022/09/27 07:10:24;;;;;;;;;;;17.60;99.90;;;;;;4936309;29;19911;-73
2022/09/27 07:12:51;;;;;;;;;;;17.60;99.90;;;;;;4936433;29;19915;-68
2022/09/27 07:15:20;;;;;;;;;;;17.60;99.90;;;;;;4925472;29;19923;-70
2022/09/27 07:17:47;;;;;;;;;;;17.60;99.90;;;;;;4916738;29;20450;-69
2022/09/27 07:20:14;;;;;;;;;;;17.60;99.90;;;;;;4917676;29;19911;-71
2022/09/27 07:22:41;;;;;;;;;;;17.60;99.90;;;;;;4917519;29;19919;-72
2022/09/27 07:25:08;;;;;;;;;;;17.60;99.90;;;;;;4916982;29;19911;-73
2022/09/27 07:27:35;;;;;;;;;;;17.60;99.90;;;;;;4917418;29;19911;-72
2022/09/27 07:30:02;;;;;;;;;;;17.50;99.90;;;;;;4916996;29;19919;-71
2022/09/27 07:32:29;;;;;;;;;;;17.50;99.90;;;;;;4916260;29;19915;-70
2022/09/27 07:34:55;;;;;;;;;;;17.50;99.90;;;;;;4916403;29;20231;-73
2022/09/27 07:37:23;;;;;;;;;;;17.50;99.90;;;;;;4917060;29;19970;-72
2022/09/27 07:39:50;;;;;;;;;;;17.50;99.90;;;;;;4917627;29;19915;-70
2022/09/27 07:42:16;;;;;;;;;;;17.40;99.90;;;;;;4916276;29;20289;-73
2022/09/27 07:44:44;;;;;;;;;;;17.30;99.90;;;;;;4926803;29;19919;-69
2022/09/27 07:47:10;;;;;;;;;;;17.30;99.90;;;;;;4935955;29;19915;-70
2022/09/27 07:49:41;;;;;;;;;;;17.30;99.90;;;;;;4936037;29;19919;-69
2022/09/27 07:52:07;;;;;;;;;;;17.30;99.90;;;;;;4936044;29;19915;-73
2022/09/27 07:54:34;;;;;;;;;;;17.30;99.90;;;;;;4935443;29;19915;-68
2022/09/27 07:57:02;;;;;;;;;;;17.20;99.90;;;;;;4935726;29;20374;-68
2022/09/27 07:59:28;;;;;;;;;;;17.30;99.90;;;;;;4935838;29;20002;-68
2022/09/27 08:01:55;;;;;;;;;;;17.20;99.90;;;;;;4933231;29;20338;-70
2022/09/27 08:04:22;;;;;;;;;;;17.20;99.90;;;;;;4933533;29;19966;-71
2022/09/27 08:06:48;;;;;;;;;;;17.20;99.90;;;;;;4934766;29;19922;-70
2022/09/27 08:09:15;;;;;;;;;;;17.20;99.90;;;;;;4934818;29;20027;-74
2022/09/27 08:11:43;;;;;;;;;;;17.20;99.90;;;;;;4935322;29;19971;-69
2022/09/27 08:14:10;;;;;;;;;;;17.20;99.90;;;;;;4934712;29;20001;-71
2022/09/27 08:16:36;;;;;;;;;;;17.20;99.90;;;;;;4935470;29;19915;-73
2022/09/27 08:19:06;;;;;;;;;;;17.20;99.90;;;;;;4935599;29;19918;-72
2022/09/27 08:21:33;;;;;;;;;;;17.20;99.90;;;;;;4927917;29;19953;-69
2022/09/27 08:24:01;;;;;;;;;;;17.30;99.90;;;;;;4916434;29;19915;-73
2022/09/27 08:26:33;;;;;;;;;;;17.30;99.90;;;;;;4921058;29;19915;-72
2022/09/27 08:29:00;;;;;;;;;;;17.30;99.90;;;;;;4922437;29;19912;-75
2022/09/27 08:31:26;;;;;;;;;;;17.30;99.90;;;;;;4916347;29;19915;-70
2022/09/27 08:33:53;;;;;;;;;;;17.20;99.90;;;;;;4915526;29;20033;-71
2022/09/27 08:36:20;;;;;;;;;;;17.20;99.90;;;;;;4916247;29;20042;-73
2022/09/27 08:38:50;;;;;;;;;;;17.20;99.90;;;;;;4916367;29;19951;-73
2022/09/27 08:41:37;;;;;;;;;;;17.20;99.90;;;;;;4915708;29;19970;-71
2022/09/27 08:44:22;;;;;;;;;;;17.20;99.90;;;;;;4916973;29;20001;-71
2022/09/27 08:47:07;;;;;;;;;;;17.10;99.90;;;;;;4916806;29;20294;-72
2022/09/27 08:49:52;;;;;;;;;;;17.10;99.90;;;;;;4923400;29;19937;-73
2022/09/27 08:52:22;;;;;;;;;;;17.10;99.90;;;;;;4934802;29;19916;-68
2022/09/27 08:54:50;;;;;;;;;;;17.10;99.90;;;;;;4934534;29;19918;-71
2022/09/27 08:57:17;;;;;;;;;;;17.10;99.90;;;;;;4933974;29;20374;-70
2022/09/27 08:59:49;;;;;;;;;;;17.10;99.90;;;;;;4933469;29;19929;-69
2022/09/27 09:02:24;;;;;;;;;;;17.10;99.90;;;;;;4933715;29;20405;-71
2022/09/27 09:04:54;;;;;;;;;;;17.10;99.90;;;;;;4934250;29;19923;-72
2022/09/27 09:07:36;;;;;;;;;;;17.10;99.90;;;;;;4934032;29;19922;-68
2022/09/27 09:12:45;;;;;;;;;;;17.10;99.90;;;;;;4936492;29;20486;-68
2022/09/27 09:13:04;;;;;;;;;;;17.20;99.90;;;;;;4917282;29;19926;-68
2022/09/27 09:15:55;;;;;;;;;;;17.20;99.90;;;;;;4930250;29;19922;-69
2022/09/27 09:18:30;;;;;;;;;;;17.20;99.90;;;;;;4935818;29;19919;-71
2022/09/27 09:20:57;;;;;;;;;;;17.20;99.90;;;;;;4936013;29;20291;-73
2022/09/27 09:23:31;;;;;;;;;;;17.20;99.90;;;;;;4935379;29;20274;-68
2022/09/27 09:26:16;;;;;;;;;;;17.20;99.90;;;;;;4933717;29;19918;-69
2022/09/27 09:28:57;;;;;;;;;;;17.20;99.90;;;;;;4935900;29;19957;-68
2022/09/27 09:31:37;;;;;;;;;;;17.20;99.90;;;;;;4934694;29;19919;-69
2022/09/27 09:34:27;;;;;;;;;;;17.20;99.90;;;;;;4935497;29;19914;-72
2022/09/27 09:37:05;;;;;;;;;;;17.10;99.90;;;;;;4928081;29;19918;-69
2022/09/27 09:39:34;;;;;;;;;;;17.20;99.90;;;;;;4935927;29;20388;-70
2022/09/27 09:42:06;;;;;;;;;;;17.20;99.90;;;;;;4935176;29;19926;-68
2022/09/27 09:44:45;;;;;;;;;;;17.20;99.90;;;;;;4934645;29;20370;-71
2022/09/27 09:47:16;;;;;;;;;;;17.20;99.90;;;;;;4934138;29;19922;-72
2022/09/27 09:49:45;;;;;;;;;;;17.20;99.90;;;;;;4935743;29;19917;-72
2022/09/27 09:52:20;;;;;;;;;;;17.20;99.90;;;;;;4934268;29;19958;-72
2022/09/27 09:54:47;;;;;;;;;;;17.20;99.90;;;;;;4935278;29;19911;-67
2022/09/27 09:57:17;;;;;;;;;;;17.20;99.90;;;;;;4935992;29;19915;-73
2022/09/27 09:59:49;;;;;;;;;;;17.10;99.90;;;;;;4938230;29;20335;-73
2022/09/27 10:02:36;;;;;;;;;;;17.10;99.90;;;;;;4940046;29;19922;-69
2022/09/27 10:05:04;;;;;;;;;;;17.10;99.90;;;;;;4935086;29;19966;-71
2022/09/27 10:07:32;;;;;;;;;;;17.10;99.90;;;;;;4935474;29;19918;-69
2022/09/27 10:10:00;;;;;;;;;;;17.10;99.90;;;;;;4936427;29;20346;-69
2022/09/27 10:12:27;;;;;;;;;;;17.20;99.90;;;;;;4936678;29;19969;-67
2022/09/27 10:14:57;;;;;;;;;;;17.20;99.90;;;;;;4936594;29;20454;-68
2022/09/27 10:17:25;;;;;;;;;;;17.20;99.90;;;;;;4936782;29;19915;-72
2022/09/27 10:19:53;;;;;;;;;;;17.20;99.90;;;;;;4936254;29;19926;-73
2022/09/27 10:22:30;;;;;;;;;;;17.20;99.90;;;;;;4934867;29;19926;-70
2022/09/27 10:24:56;;;;;;;;;;;17.20;99.90;;;;;;4933724;29;19919;-73
2022/09/27 10:27:24;;;;;;;;;;;17.20;99.90;;;;;;4935188;29;19911;-74
2022/09/27 10:30:00;;;;;;;;;;;17.20;99.90;;;;;;4933010;29;19914;-73
2022/09/27 10:32:32;;;;;;;;;;;17.20;99.90;;;;;;4933458;29;19915;-71
2022/09/27 10:35:17;;;;;;;;;;;17.10;99.90;;;;;;4932472;29;19986;-71
2022/09/27 10:37:44;;;;;;;;;;;17.10;99.90;;;;;;4933247;29;19918;-73
2022/09/27 10:40:29;;;;;;;;;;;17.10;99.90;;;;;;4933166;29;19995;-73
2022/09/27 10:42:56;;;;;;;;;;;17.20;99.90;;;;;;4933183;29;19922;-74
2022/09/27 10:45:40;;;;;;;;;;;17.20;99.90;;;;;;4937543;29;19938;-71
2022/09/27 10:48:17;;;;;;;;;;;17.20;99.90;;;;;;4937801;29;19994;-68
2022/09/27 10:50:56;;;;;;;;;;;17.20;99.90;;;;;;4936973;29;19915;-74
2022/09/27 10:53:22;;;;;;;;;;;17.20;99.90;;;;;;4936595;29;19919;-73
2022/09/27 10:55:50;;;;;;;;;;;17.20;99.90;;;;;;4935630;29;19978;-71
2022/09/27 10:58:27;;;;;;;;;;;17.20;99.90;;;;;;4925194;29;20014;-73
2022/09/27 11:01:01;;;;;;;;;;;17.10;99.90;;;;;;4917553;29;20301;-71
2022/09/27 11:03:28;;;;;;;;;;;17.10;99.90;;;;;;4916870;29;19922;-71
2022/09/27 11:05:55;;;;;;;;;;;17.10;99.90;;;;;;4915620;29;19919;-69
2022/09/27 11:08:27;;;;;;;;;;;17.10;99.90;;;;;;4917506;29;19915;-71
2022/09/27 11:11:15;;;;;;;;;;;17.20;99.90;;;;;;4921597;29;20330;-69
2022/09/27 11:13:56;;;;;;;;;;;17.20;99.90;;;;;;4936366;29;20040;-71
2022/09/27 11:16:27;;;;;;;;;;;17.20;99.90;;;;;;4936446;29;19922;-71
2022/09/27 11:19:02;;;;;;;;;;;17.20;99.90;;;;;;4936601;29;19962;-70
2022/09/27 11:21:30;;;;;;;;;;;17.10;99.90;;;;;;4933626;29;20031;-71
2022/09/27 11:24:00;;;;;;;;;;;17.10;99.90;;;;;;4935910;29;19914;-70
2022/09/27 11:26:32;;;;;;;;;;;17.00;99.90;;;;;;4935848;29;19914;-73
2022/09/27 11:29:11;;;;;;;;;;;17.00;99.90;;;;;;4936401;29;19934;-74
2022/09/27 11:31:50;;;;;;;;;;;17.10;99.90;;;;;;4936154;29;19962;-74
2022/09/27 11:34:20;;;;;;;;;;;17.00;99.90;;;;;;4935939;29;19915;-74
2022/09/27 11:37:05;;;;;;;;;;;17.00;99.90;;;;;;4949995;29;19918;-69
2022/09/27 11:40:01;;;;;;;;;;;16.90;99.90;;;;;;4936581;29;19915;-72
2022/09/27 11:42:45;;;;;;;;;;;16.90;99.90;;;;;;4900043;29;19923;-73
2022/09/27 11:45:19;;;;;;;;;;;16.80;99.90;;;;;;4935643;29;19965;-72
2022/09/27 11:47:49;;;;;;;;;;;16.80;99.90;;;;;;4935672;29;19950;-74
2022/09/27 11:50:27;;;;;;;;;;;16.90;99.90;;;;;;4935340;29;20401;-68
2022/09/27 11:53:21;;;;;;;;;;;16.70;99.90;;;;;;4935808;29;20259;-68
2022/09/27 11:55:59;;;;;;;;;;;16.70;99.90;;;;;;4934663;29;19914;-69
2022/09/27 11:58:25;;;;;;;;;;;16.60;99.90;;;;;;4934687;29;19911;-70
2022/09/27 12:01:05;;;;;;;;;;;16.60;99.90;;;;;;4935044;29;20048;-69
2022/09/27 12:03:50;;;;;;;;;;;16.50;99.90;;;;;;4934935;29;19931;-72
2022/09/27 12:06:30;;;;;;;;;;;16.40;99.90;;;;;;4932886;29;20201;-69
2022/09/27 12:09:04;;;;;;;;;;;16.30;99.90;;;;;;4933918;29;19919;-68
2022/09/27 12:11:30;;;;;;;;;;;16.30;99.90;;;;;;4935150;29;19918;-69
2022/09/27 12:14:00;;;;;;;;;;;16.20;99.90;;;;;;4934620;29;19999;-68
2022/09/27 12:16:27;;;;;;;;;;;16.20;99.90;;;;;;4935044;29;19914;-68
2022/09/27 12:18:54;;;;;;;;;;;16.20;99.90;;;;;;4934695;29;19915;-69
2022/09/27 12:21:21;;;;;;;;;;;16.30;99.90;;;;;;4934631;29;20286;-73
2022/09/27 12:23:56;;;;;;;;;;;16.30;99.90;;;;;;4934942;29;19966;-68
2022/09/27 12:26:29;;;;;;;;;;;16.40;99.90;;;;;;4934695;29;19915;-71
2022/09/27 12:28:57;;;;;;;;;;;16.50;99.90;;;;;;4935485;29;19921;-70
2022/09/27 12:31:30;;;;;;;;;;;16.60;99.90;;;;;;4934686;29;19962;-70
2022/09/27 12:33:57;;;;;;;;;;;16.60;99.90;;;;;;4934817;29;19922;-71
2022/09/27 12:36:26;;;;;;;;;;;16.60;99.90;;;;;;4934736;29;19910;-68
2022/09/27 12:39:10;;;;;;;;;;;16.60;99.90;;;;;;4934693;29;19922;-71
2022/09/27 12:41:40;;;;;;;;;;;16.60;99.90;;;;;;4935053;29;19921;-68
2022/09/27 12:44:09;;;;;;;;;;;16.60;99.90;;;;;;4936200;29;19967;-70
2022/09/27 12:46:44;;;;;;;;;;;16.70;99.90;;;;;;4937479;29;19915;-71
2022/09/27 12:49:17;;;;;;;;;;;16.70;99.90;;;;;;4939684;29;19919;-74
2022/09/27 12:51:54;;;;;;;;;;;16.70;99.90;;;;;;4934129;29;19945;-73
2022/09/27 12:54:31;;;;;;;;;;;16.70;99.90;;;;;;4935069;29;19915;-74
2022/09/27 12:57:07;;;;;;;;;;;16.80;99.90;;;;;;4934721;29;19975;-74
2022/09/27 12:59:43;;;;;;;;;;;16.90;99.90;;;;;;4936118;29;20410;-73
2022/09/27 13:02:27;;;;;;;;;;;16.90;99.90;;;;;;4935792;29;19925;-76
2022/09/27 13:04:55;;;;;;;;;;;17.00;99.90;;;;;;4936891;29;19915;-75
2022/09/27 13:07:34;;;;;;;;;;;17.00;99.90;;;;;;4936334;29;20013;-75
2022/09/27 13:10:10;;;;;;;;;;;17.00;99.90;;;;;;4938167;29;19915;-75
2022/09/27 13:12:38;;;;;;;;;;;17.00;99.90;;;;;;4953498;29;19946;-72
2022/09/27 13:15:18;;;;;;;;;;;17.10;99.90;;;;;;4938164;29;20418;-74
2022/09/27 13:17:45;;;;;;;;;;;17.10;99.90;;;;;;4936433;29;19918;-73
2022/09/27 13:20:36;;;;;;;;;;;17.10;99.90;;;;;;4936792;29;19915;-72
2022/09/27 13:23:18;;;;;;;;;;;17.10;99.90;;;;;;4936355;29;19934;-72
2022/09/27 13:26:01;;;;;;;;;;;17.10;99.90;;;;;;4935716;29;19915;-70
2022/09/27 13:28:31;;;;;;;;;;;17.10;99.90;;;;;;4936204;29;20011;-72
2022/09/27 13:31:05;;;;;;;;;;;17.10;99.90;;;;;;4936007;29;19917;-71
2022/09/27 13:33:33;;;;;;;;;;;17.00;99.90;;;;;;4935667;29;19918;-68
2022/09/27 13:36:06;;;;;;;;;;;16.80;99.90;;;;;;4935886;29;19914;-71
2022/09/27 13:38:33;;;;;;;;;;;16.60;99.90;;;;;;4935918;29;20359;-70
2022/09/27 13:41:18;;;;;;;;;;;16.60;99.90;;;;;;4935573;29;20303;-69
2022/09/27 13:44:06;;;;;;;;;;;16.40;99.90;;;;;;4935572;29;19915;-69
2022/09/27 13:46:33;;;;;;;;;;;16.30;99.90;;;;;;4915444;29;20370;-68
2022/09/27 13:49:19;;;;;;;;;;;16.10;99.90;;;;;;4935700;29;20349;-69
2022/09/27 13:51:56;;;;;;;;;;;15.90;99.90;;;;;;4935637;29;19915;-69
2022/09/27 13:54:41;;;;;;;;;;;15.90;99.90;;;;;;4935219;29;20358;-68
2022/09/27 13:57:25;;;;;;;;;;;15.80;99.90;;;;;;4935335;29;20014;-70
2022/09/27 13:59:54;;;;;;;;;;;15.80;99.90;;;;;;4935305;29;19921;-73
2022/09/27 14:02:24;;;;;;;;;;;15.70;99.90;;;;;;4935112;29;19919;-74
2022/09/27 14:04:52;;;;;;;;;;;15.80;99.90;;;;;;4935078;29;19982;-68
2022/09/27 14:07:22;;;;;;;;;;;15.80;99.90;;;;;;4935183;29;19915;-72
2022/09/27 14:09:51;;;;;;;;;;;15.80;99.90;;;;;;4935581;29;20410;-68
2022/09/27 14:12:24;;;;;;;;;;;15.70;99.90;;;;;;4935334;29;19971;-68
2022/09/27 14:14:51;;;;;;;;;;;15.80;99.90;;;;;;4935083;29;19915;-70
2022/09/27 14:17:18;;;;;;;;;;;15.70;99.90;;;;;;4934470;29;19911;-73
2022/09/27 14:19:46;;;;;;;;;;;15.70;99.90;;;;;;4934858;29;20058;-72
2022/09/27 14:22:14;;;;;;;;;;;15.70;99.90;;;;;;4935093;29;19930;-72
2022/09/27 14:24:41;;;;;;;;;;;15.80;99.90;;;;;;4935015;29;19923;-69
2022/09/27 14:27:19;;;;;;;;;;;15.80;99.90;;;;;;4935228;29;19937;-74
2022/09/27 14:29:46;;;;;;;;;;;15.90;99.90;;;;;;4934125;29;19955;-72
2022/09/27 14:32:16;;;;;;;;;;;16.00;99.90;;;;;;4934950;29;19918;-74
2022/09/27 14:34:45;;;;;;;;;;;16.10;99.90;;;;;;4935006;29;20266;-73
2022/09/27 14:37:23;;;;;;;;;;;16.10;99.90;;;;;;4934829;29;20017;-71
2022/09/27 14:39:53;;;;;;;;;;;16.20;99.90;;;;;;4933493;29;19911;-73
2022/09/27 14:42:21;;;;;;;;;;;16.20;99.90;;;;;;4934940;29;20394;-71